Aérodrome :
LOGIN :

S'inscrire | Disclaimer

   EN    FR    IT 

 










Légende :    VFR   VFR Marginal   IFR   IFR Intensif   IFR Très Intensif
Visi : 
Plafond : 
>= 8 km
>= 3000ft
5 à 8 km
1000 à 3000 ft
1500m à 5 km
500 à 1000 ft
800 à 1500m
200 à 500 ft
< 800m
< 200 ft
Symboles :   Orages  Brouillard  Fortes neiges  Fortes précipitations  Vent > 20 kt
SIGMETs :   Divers  Orages  Givrage  Turbulence  Onde Orograph.  Cendres Volcan.







- Altitude de l'aérodrome : 53 ft
- Code IATA : HAM


EDDH - Hamburg

DERNIER METAR :
  • 191020Z 28012KT 9999 FEW012 FEW025CB SCT032 08/06 Q1005 TEMPO 28015G25KT

METARs EXPIRÉS :
  • 190950Z 27011KT 9999 FEW012 SCT025CB 07/05 Q1005 TEMPO 28015G25KT
  • 190920Z 26008KT 9000 -SHRA FEW010 SCT020CB SCT028 06/05 Q1004 BECMG 29015G25KT
  • 190850Z 26009KT 9999 FEW010 SCT015CB SCT230 06/05 Q1004 BECMG 29015G25KT
  • 190820Z 27013KT 9999 -SHRA SCT009 BKN014CB 05/04 Q1004 RESHGS TEMPO 29015G35KT SHRAGS
  • 190750Z 32005KT 270V030 8000 SHRA FEW008 BKN019CB SCT028 05/04 Q1004 TEMPO 29015G35KT 4000 SHRAGS BKN013

TAF TAF EDDH
Valide du 19 à 06h jusqu'au 20 à 12h UTC


190500Z 1906/2012 26010G20KT 9999 SCT035
PROB40
TEMPO 1906/1916 29015G35KT 4000 SHRAGS BKN015CB
PROB30
TEMPO 1906/1911 31020G45KT 2500 TSRAGS SCT008CB BKN013
BECMG 1908/1910 29015G30KT
BECMG 1916/1919 28008KT
TEMPO 2009/2012 4000 -RADZ BKN012
Pas de NOTAMs connus pour ce terrain.



MET'MAP, la Météo Aéronautique d'un coup d'oeil ! - Copyright ORBIFLY Décembre 2007 - Disclaimer

ORBIFLY MET'MAP TEAM :

Programmation & Développement : Alexandra Zaïnal
Conception & Développement : Baudouin d'Aumeries
Co-Programmation & Développement : Marc-Olivier Méhu
Soutien technique & logistique : Manuel Goepfert

Contact : metmap@orbifly.com




SOURCES & CREDITS :

   NOAA